sensor_id;sensor_type;location;lat;lon;timestamp;temperature;humidity
70166;SHT30;57541;47.408;18.822;2023-05-27T00:00:09;16.38;97.97
70166;SHT30;57541;47.408;18.822;2023-05-27T00:00:40;16.41;97.94
70166;SHT30;57541;47.408;18.822;2023-05-27T00:01:12;16.41;98.14
70166;SHT30;57541;47.408;18.822;2023-05-27T00:01:44;16.41;97.77
70166;SHT30;57541;47.408;18.822;2023-05-27T00:02:16;16.39;97.96
70166;SHT30;57541;47.408;18.822;2023-05-27T00:02:48;16.45;97.82
70166;SHT30;57541;47.408;18.822;2023-05-27T00:03:20;16.38;97.96
70166;SHT30;57541;47.408;18.822;2023-05-27T00:03:52;16.44;97.97
70166;SHT30;57541;47.408;18.822;2023-05-27T00:04:24;16.45;97.78
70166;SHT30;57541;47.408;18.822;2023-05-27T00:04:56;16.47;97.59
70166;SHT30;57541;47.408;18.822;2023-05-27T00:05:28;16.49;97.54
70166;SHT30;57541;47.408;18.822;2023-05-27T00:06:00;16.48;97.44
70166;SHT30;57541;47.408;18.822;2023-05-27T00:06:32;16.45;97.56
70166;SHT30;57541;47.408;18.822;2023-05-27T00:07:04;16.42;97.88
70166;SHT30;57541;47.408;18.822;2023-05-27T00:07:36;16.41;97.97
70166;SHT30;57541;47.408;18.822;2023-05-27T00:08:07;16.41;98.23
70166;SHT30;57541;47.408;18.822;2023-05-27T00:08:39;16.44;98.30
70166;SHT30;57541;47.408;18.822;2023-05-27T00:09:11;16.45;97.79
70166;SHT30;57541;47.408;18.822;2023-05-27T00:09:43;16.47;97.73
70166;SHT30;57541;47.408;18.822;2023-05-27T00:10:15;16.44;97.92
70166;SHT30;57541;47.408;18.822;2023-05-27T00:10:46;16.44;97.86
70166;SHT30;57541;47.408;18.822;2023-05-27T00:11:19;16.44;97.87
70166;SHT30;57541;47.408;18.822;2023-05-27T00:11:51;16.45;97.72
70166;SHT30;57541;47.408;18.822;2023-05-27T00:12:23;16.39;97.86
70166;SHT30;57541;47.408;18.822;2023-05-27T00:12:54;16.41;97.91
70166;SHT30;57541;47.408;18.822;2023-05-27T00:13:26;16.39;97.99
70166;SHT30;57541;47.408;18.822;2023-05-27T00:13:58;16.41;97.92
70166;SHT30;57541;47.408;18.822;2023-05-27T00:14:30;16.44;97.83
70166;SHT30;57541;47.408;18.822;2023-05-27T00:15:02;16.42;97.79
70166;SHT30;57541;47.408;18.822;2023-05-27T00:15:33;16.45;97.69
70166;SHT30;57541;47.408;18.822;2023-05-27T00:16:06;16.42;97.86
70166;SHT30;57541;47.408;18.822;2023-05-27T00:16:38;16.38;97.89
70166;SHT30;57541;47.408;18.822;2023-05-27T00:17:10;16.38;98.03
70166;SHT30;57541;47.408;18.822;2023-05-27T00:17:45;16.38;97.89
70166;SHT30;57541;47.408;18.822;2023-05-27T00:18:17;16.44;97.71
70166;SHT30;57541;47.408;18.822;2023-05-27T00:18:49;16.42;97.69
70166;SHT30;57541;47.408;18.822;2023-05-27T00:19:20;16.42;97.74
70166;SHT30;57541;47.408;18.822;2023-05-27T00:19:52;16.39;98.00
70166;SHT30;57541;47.408;18.822;2023-05-27T00:20:26;16.38;98.07
70166;SHT30;57541;47.408;18.822;2023-05-27T00:20:57;16.32;98.09
70166;SHT30;57541;47.408;18.822;2023-05-27T00:21:29;16.31;98.26
70166;SHT30;57541;47.408;18.822;2023-05-27T00:22:01;16.29;98.40
70166;SHT30;57541;47.408;18.822;2023-05-27T00:22:33;16.26;98.41
70166;SHT30;57541;47.408;18.822;2023-05-27T00:23:06;16.24;98.52
70166;SHT30;57541;47.408;18.822;2023-05-27T00:23:37;16.21;98.68
70166;SHT30;57541;47.408;18.822;2023-05-27T00:24:09;16.24;98.58
70166;SHT30;57541;47.408;18.822;2023-05-27T00:24:41;16.22;98.46
70166;SHT30;57541;47.408;18.822;2023-05-27T00:25:13;16.22;98.59
70166;SHT30;57541;47.408;18.822;2023-05-27T00:25:45;16.21;98.72
70166;SHT30;57541;47.408;18.822;2023-05-27T00:26:18;16.22;98.62
70166;SHT30;57541;47.408;18.822;2023-05-27T00:26:50;16.25;98.63
70166;SHT30;57541;47.408;18.822;2023-05-27T00:27:22;16.26;98.62
70166;SHT30;57541;47.408;18.822;2023-05-27T00:27:55;16.31;98.34
70166;SHT30;57541;47.408;18.822;2023-05-27T00:28:26;16.26;98.40
70166;SHT30;57541;47.408;18.822;2023-05-27T00:29:00;16.29;98.33
70166;SHT30;57541;47.408;18.822;2023-05-27T00:29:32;16.25;98.67
70166;SHT30;57541;47.408;18.822;2023-05-27T00:30:04;16.22;98.51
70166;SHT30;57541;47.408;18.822;2023-05-27T00:30:36;16.24;98.50
70166;SHT30;57541;47.408;18.822;2023-05-27T00:31:08;16.29;98.38
70166;SHT30;57541;47.408;18.822;2023-05-27T00:31:40;16.26;98.37
70166;SHT30;57541;47.408;18.822;2023-05-27T00:32:11;16.28;98.46
70166;SHT30;57541;47.408;18.822;2023-05-27T00:32:43;16.31;98.50
70166;SHT30;57541;47.408;18.822;2023-05-27T00:33:15;16.26;98.47
70166;SHT30;57541;47.408;18.822;2023-05-27T00:33:47;16.25;98.61
70166;SHT30;57541;47.408;18.822;2023-05-27T00:34:18;16.25;98.66
70166;SHT30;57541;47.408;18.822;2023-05-27T00:34:50;16.21;98.68
70166;SHT30;57541;47.408;18.822;2023-05-27T00:35:22;16.25;98.62
70166;SHT30;57541;47.408;18.822;2023-05-27T00:35:54;16.25;98.61
70166;SHT30;57541;47.408;18.822;2023-05-27T00:36:26;16.25;98.56
70166;SHT30;57541;47.408;18.822;2023-05-27T00:36:58;16.29;98.39
70166;SHT30;57541;47.408;18.822;2023-05-27T00:37:29;16.25;98.36
70166;SHT30;57541;47.408;18.822;2023-05-27T00:38:01;16.33;98.32
70166;SHT30;57541;47.408;18.822;2023-05-27T00:38:35;16.32;98.20
70166;SHT30;57541;47.408;18.822;2023-05-27T00:39:07;16.26;98.32
70166;SHT30;57541;47.408;18.822;2023-05-27T00:39:39;16.29;98.38
70166;SHT30;57541;47.408;18.822;2023-05-27T00:40:14;16.31;98.20
70166;SHT30;57541;47.408;18.822;2023-05-27T00:40:46;16.35;98.26
70166;SHT30;57541;47.408;18.822;2023-05-27T00:41:18;16.31;98.30
70166;SHT30;57541;47.408;18.822;2023-05-27T00:41:50;16.35;98.15
70166;SHT30;57541;47.408;18.822;2023-05-27T00:42:22;16.33;98.00
70166;SHT30;57541;47.408;18.822;2023-05-27T00:42:54;16.38;97.92
70166;SHT30;57541;47.408;18.822;2023-05-27T00:43:26;16.39;97.90
70166;SHT30;57541;47.408;18.822;2023-05-27T00:43:58;16.38;97.85
70166;SHT30;57541;47.408;18.822;2023-05-27T00:44:30;16.32;98.00
70166;SHT30;57541;47.408;18.822;2023-05-27T00:45:03;16.32;98.10
70166;SHT30;57541;47.408;18.822;2023-05-27T00:45:35;16.41;97.94
70166;SHT30;57541;47.408;18.822;2023-05-27T00:46:07;16.36;97.89
70166;SHT30;57541;47.408;18.822;2023-05-27T00:46:39;16.38;97.86
70166;SHT30;57541;47.408;18.822;2023-05-27T00:47:11;16.39;97.82
70166;SHT30;57541;47.408;18.822;2023-05-27T00:47:42;16.35;97.91
70166;SHT30;57541;47.408;18.822;2023-05-27T00:48:14;16.35;97.86
70166;SHT30;57541;47.408;18.822;2023-05-27T00:48:47;16.36;97.92
70166;SHT30;57541;47.408;18.822;2023-05-27T00:49:19;16.36;97.84
70166;SHT30;57541;47.408;18.822;2023-05-27T00:49:50;16.39;97.81
70166;SHT30;57541;47.408;18.822;2023-05-27T00:50:24;16.39;97.77
70166;SHT30;57541;47.408;18.822;2023-05-27T00:50:56;16.39;97.85
70166;SHT30;57541;47.408;18.822;2023-05-27T00:51:28;16.36;97.78
70166;SHT30;57541;47.408;18.822;2023-05-27T00:52:00;16.32;97.88
70166;SHT30;57541;47.408;18.822;2023-05-27T00:52:32;16.38;97.90
70166;SHT30;57541;47.408;18.822;2023-05-27T00:53:04;16.29;98.05
70166;SHT30;57541;47.408;18.822;2023-05-27T00:53:39;16.25;98.24
70166;SHT30;57541;47.408;18.822;2023-05-27T00:54:13;16.20;98.56
70166;SHT30;57541;47.408;18.822;2023-05-27T00:54:45;16.20;98.58
70166;SHT30;57541;47.408;18.822;2023-05-27T00:55:17;16.22;98.51
70166;SHT30;57541;47.408;18.822;2023-05-27T00:55:52;16.25;98.48
70166;SHT30;57541;47.408;18.822;2023-05-27T00:56:25;16.24;98.49
70166;SHT30;57541;47.408;18.822;2023-05-27T00:56:57;16.28;98.42
70166;SHT30;57541;47.408;18.822;2023-05-27T00:57:28;16.29;98.27
70166;SHT30;57541;47.408;18.822;2023-05-27T00:58:01;16.25;98.38
70166;SHT30;57541;47.408;18.822;2023-05-27T00:58:34;16.28;98.35
70166;SHT30;57541;47.408;18.822;2023-05-27T00:59:06;16.26;98.35
70166;SHT30;57541;47.408;18.822;2023-05-27T00:59:38;16.31;98.27
70166;SHT30;57541;47.408;18.822;2023-05-27T01:00:11;16.26;98.28
70166;SHT30;57541;47.408;18.822;2023-05-27T01:00:43;16.26;98.30
70166;SHT30;57541;47.408;18.822;2023-05-27T01:01:14;16.32;98.28
70166;SHT30;57541;47.408;18.822;2023-05-27T01:01:46;16.28;98.19
70166;SHT30;57541;47.408;18.822;2023-05-27T01:02:20;16.25;98.35
70166;SHT30;57541;47.408;18.822;2023-05-27T01:02:52;16.28;98.33
70166;SHT30;57541;47.408;18.822;2023-05-27T01:03:24;16.32;98.16
70166;SHT30;57541;47.408;18.822;2023-05-27T01:03:56;16.29;98.17
70166;SHT30;57541;47.408;18.822;2023-05-27T01:04:28;16.28;98.20
70166;SHT30;57541;47.408;18.822;2023-05-27T01:05:00;16.29;98.25
70166;SHT30;57541;47.408;18.822;2023-05-27T01:05:32;16.31;98.24
70166;SHT30;57541;47.408;18.822;2023-05-27T01:08:15;16.33;98.12
70166;SHT30;57541;47.408;18.822;2023-05-27T01:08:56;16.25;98.16
70166;SHT30;57541;47.408;18.822;2023-05-27T01:09:37;16.10;98.73
70166;SHT30;57541;47.408;18.822;2023-05-27T01:10:23;16.15;98.68
70166;SHT30;57541;47.408;18.822;2023-05-27T01:10:55;16.11;98.74
70166;SHT30;57541;47.408;18.822;2023-05-27T01:11:32;16.11;98.86
70166;SHT30;57541;47.408;18.822;2023-05-27T01:12:10;16.08;98.84
70166;SHT30;57541;47.408;18.822;2023-05-27T01:12:54;16.05;98.98
70166;SHT30;57541;47.408;18.822;2023-05-27T01:13:38;16.05;99.05
70166;SHT30;57541;47.408;18.822;2023-05-27T01:14:14;16.07;98.95
70166;SHT30;57541;47.408;18.822;2023-05-27T01:14:47;16.07;99.01
70166;SHT30;57541;47.408;18.822;2023-05-27T01:15:22;16.07;99.06
70166;SHT30;57541;47.408;18.822;2023-05-27T01:15:55;16.05;99.21
70166;SHT30;57541;47.408;18.822;2023-05-27T01:16:30;16.08;99.13
70166;SHT30;57541;47.408;18.822;2023-05-27T01:17:05;16.12;98.82
70166;SHT30;57541;47.408;18.822;2023-05-27T01:17:37;16.15;98.65
70166;SHT30;57541;47.408;18.822;2023-05-27T01:18:15;16.17;98.66
70166;SHT30;57541;47.408;18.822;2023-05-27T01:18:48;16.12;98.68
70166;SHT30;57541;47.408;18.822;2023-05-27T01:19:29;16.15;98.81
70166;SHT30;57541;47.408;18.822;2023-05-27T01:20:06;16.10;98.95
70166;SHT30;57541;47.408;18.822;2023-05-27T01:20:39;16.07;98.93
70166;SHT30;57541;47.408;18.822;2023-05-27T01:21:15;16.05;98.94
70166;SHT30;57541;47.408;18.822;2023-05-27T01:21:48;16.02;99.30
70166;SHT30;57541;47.408;18.822;2023-05-27T01:22:27;16.05;99.13
70166;SHT30;57541;47.408;18.822;2023-05-27T01:23:00;16.05;98.98
70166;SHT30;57541;47.408;18.822;2023-05-27T01:23:33;16.07;98.87
70166;SHT30;57541;47.408;18.822;2023-05-27T01:24:05;16.08;98.87
70166;SHT30;57541;47.408;18.822;2023-05-27T01:24:37;16.08;98.79
70166;SHT30;57541;47.408;18.822;2023-05-27T01:25:10;16.15;98.89
70166;SHT30;57541;47.408;18.822;2023-05-27T01:25:42;16.11;98.75
70166;SHT30;57541;47.408;18.822;2023-05-27T01:26:13;16.05;99.03
70166;SHT30;57541;47.408;18.822;2023-05-27T01:26:45;16.05;98.99
70166;SHT30;57541;47.408;18.822;2023-05-27T01:27:17;16.05;98.86
70166;SHT30;57541;47.408;18.822;2023-05-27T01:27:49;16.08;98.74
70166;SHT30;57541;47.408;18.822;2023-05-27T01:28:21;16.00;98.85
70166;SHT30;57541;47.408;18.822;2023-05-27T01:28:53;16.04;99.05
70166;SHT30;57541;47.408;18.822;2023-05-27T01:29:25;16.02;98.97
70166;SHT30;57541;47.408;18.822;2023-05-27T01:29:57;16.01;99.05
70166;SHT30;57541;47.408;18.822;2023-05-27T01:30:29;16.05;99.01
70166;SHT30;57541;47.408;18.822;2023-05-27T01:31:18;16.05;98.75
70166;SHT30;57541;47.408;18.822;2023-05-27T01:32:27;16.07;98.86
70166;SHT30;57541;47.408;18.822;2023-05-27T01:33:18;16.00;99.02
70166;SHT30;57541;47.408;18.822;2023-05-27T01:34:03;16.04;98.73
70166;SHT30;57541;47.408;18.822;2023-05-27T01:34:44;16.05;98.72
70166;SHT30;57541;47.408;18.822;2023-05-27T01:35:30;16.04;98.72
70166;SHT30;57541;47.408;18.822;2023-05-27T01:36:08;16.07;98.61
70166;SHT30;57541;47.408;18.822;2023-05-27T01:36:47;16.08;98.62
70166;SHT30;57541;47.408;18.822;2023-05-27T01:37:21;16.02;98.68
70166;SHT30;57541;47.408;18.822;2023-05-27T01:37:56;16.01;98.65
70166;SHT30;57541;47.408;18.822;2023-05-27T01:38:31;16.05;98.69
70166;SHT30;57541;47.408;18.822;2023-05-27T01:39:05;16.05;98.63
70166;SHT30;57541;47.408;18.822;2023-05-27T01:39:39;16.01;98.65
70166;SHT30;57541;47.408;18.822;2023-05-27T01:40:13;16.02;98.68
70166;SHT30;57541;47.408;18.822;2023-05-27T01:40:47;16.02;98.62
70166;SHT30;57541;47.408;18.822;2023-05-27T01:41:20;16.01;98.73
70166;SHT30;57541;47.408;18.822;2023-05-27T01:41:54;15.97;98.87
70166;SHT30;57541;47.408;18.822;2023-05-27T01:42:27;16.04;98.81
70166;SHT30;57541;47.408;18.822;2023-05-27T01:42:59;16.02;98.75
70166;SHT30;57541;47.408;18.822;2023-05-27T01:43:31;16.00;98.80
70166;SHT30;57541;47.408;18.822;2023-05-27T01:44:03;16.01;98.88
70166;SHT30;57541;47.408;18.822;2023-05-27T01:44:36;15.98;98.95
70166;SHT30;57541;47.408;18.822;2023-05-27T01:45:09;16.00;98.87
70166;SHT30;57541;47.408;18.822;2023-05-27T01:45:42;15.97;98.94
70166;SHT30;57541;47.408;18.822;2023-05-27T01:46:14;15.98;98.85
70166;SHT30;57541;47.408;18.822;2023-05-27T01:46:46;15.98;98.87
70166;SHT30;57541;47.408;18.822;2023-05-27T01:47:18;15.94;98.97
70166;SHT30;57541;47.408;18.822;2023-05-27T01:47:50;15.94;98.92
70166;SHT30;57541;47.408;18.822;2023-05-27T01:48:22;15.94;98.91
70166;SHT30;57541;47.408;18.822;2023-05-27T01:48:54;15.94;98.87
70166;SHT30;57541;47.408;18.822;2023-05-27T01:49:25;15.93;99.02
70166;SHT30;57541;47.408;18.822;2023-05-27T01:49:57;15.94;98.99
70166;SHT30;57541;47.408;18.822;2023-05-27T01:50:29;15.93;98.96
70166;SHT30;57541;47.408;18.822;2023-05-27T01:51:04;15.87;99.10
70166;SHT30;57541;47.408;18.822;2023-05-27T01:51:36;15.89;99.15
70166;SHT30;57541;47.408;18.822;2023-05-27T01:52:09;15.89;99.01
70166;SHT30;57541;47.408;18.822;2023-05-27T01:52:40;15.90;98.95
70166;SHT30;57541;47.408;18.822;2023-05-27T01:53:12;15.96;98.96
70166;SHT30;57541;47.408;18.822;2023-05-27T01:53:44;15.94;98.85
70166;SHT30;57541;47.408;18.822;2023-05-27T01:54:16;15.84;98.89
70166;SHT30;57541;47.408;18.822;2023-05-27T01:54:48;15.87;99.05
70166;SHT30;57541;47.408;18.822;2023-05-27T01:55:19;15.86;98.96
70166;SHT30;57541;47.408;18.822;2023-05-27T01:55:51;15.87;99.01
70166;SHT30;57541;47.408;18.822;2023-05-27T01:56:23;15.87;98.99
70166;SHT30;57541;47.408;18.822;2023-05-27T01:56:55;15.80;99.12
70166;SHT30;57541;47.408;18.822;2023-05-27T01:57:27;15.84;99.14
70166;SHT30;57541;47.408;18.822;2023-05-27T01:57:59;15.83;99.16
70166;SHT30;57541;47.408;18.822;2023-05-27T01:58:31;15.86;99.09
70166;SHT30;57541;47.408;18.822;2023-05-27T01:59:03;15.83;99.07
70166;SHT30;57541;47.408;18.822;2023-05-27T01:59:34;15.89;98.95
70166;SHT30;57541;47.408;18.822;2023-05-27T02:00:06;15.91;98.83
70166;SHT30;57541;47.408;18.822;2023-05-27T02:00:41;15.93;98.73
70166;SHT30;57541;47.408;18.822;2023-05-27T02:01:12;15.90;98.77
70166;SHT30;57541;47.408;18.822;2023-05-27T02:01:44;15.93;98.68
70166;SHT30;57541;47.408;18.822;2023-05-27T02:02:16;15.89;98.79
70166;SHT30;57541;47.408;18.822;2023-05-27T02:02:48;15.86;98.84
70166;SHT30;57541;47.408;18.822;2023-05-27T02:03:20;15.87;98.86
70166;SHT30;57541;47.408;18.822;2023-05-27T02:03:52;15.83;98.93
70166;SHT30;57541;47.408;18.822;2023-05-27T02:04:24;15.83;99.03
70166;SHT30;57541;47.408;18.822;2023-05-27T02:04:55;15.83;99.15
70166;SHT30;57541;47.408;18.822;2023-05-27T02:05:27;15.84;99.06
70166;SHT30;57541;47.408;18.822;2023-05-27T02:05:59;15.81;98.95
70166;SHT30;57541;47.408;18.822;2023-05-27T02:06:30;15.81;98.97
70166;SHT30;57541;47.408;18.822;2023-05-27T02:07:04;15.80;99.16
70166;SHT30;57541;47.408;18.822;2023-05-27T02:07:35;15.80;99.09
70166;SHT30;57541;47.408;18.822;2023-05-27T02:08:07;15.84;99.16
70166;SHT30;57541;47.408;18.822;2023-05-27T02:08:39;15.80;99.28
70166;SHT30;57541;47.408;18.822;2023-05-27T02:09:11;15.80;99.27
70166;SHT30;57541;47.408;18.822;2023-05-27T02:09:45;15.80;99.35
70166;SHT30;57541;47.408;18.822;2023-05-27T02:10:17;15.74;99.42
70166;SHT30;57541;47.408;18.822;2023-05-27T02:10:49;15.70;99.48
70166;SHT30;57541;47.408;18.822;2023-05-27T02:11:20;15.66;99.72
70166;SHT30;57541;47.408;18.822;2023-05-27T02:11:52;15.66;99.75
70166;SHT30;57541;47.408;18.822;2023-05-27T02:12:24;15.64;99.78
70166;SHT30;57541;47.408;18.822;2023-05-27T02:12:56;15.61;99.73
70166;SHT30;57541;47.408;18.822;2023-05-27T02:13:27;15.60;99.80
70166;SHT30;57541;47.408;18.822;2023-05-27T02:14:00;15.61;99.82
70166;SHT30;57541;47.408;18.822;2023-05-27T02:14:32;15.63;99.86
70166;SHT30;57541;47.408;18.822;2023-05-27T02:15:06;15.59;99.94
70166;SHT30;57541;47.408;18.822;2023-05-27T02:15:38;15.59;99.88
70166;SHT30;57541;47.408;18.822;2023-05-27T02:16:09;15.61;99.92
70166;SHT30;57541;47.408;18.822;2023-05-27T02:16:41;15.64;99.71
70166;SHT30;57541;47.408;18.822;2023-05-27T02:17:14;15.66;99.70
70166;SHT30;57541;47.408;18.822;2023-05-27T02:17:46;15.63;99.76
70166;SHT30;57541;47.408;18.822;2023-05-27T02:18:18;15.63;99.76
70166;SHT30;57541;47.408;18.822;2023-05-27T02:18:52;15.63;99.77
70166;SHT30;57541;47.408;18.822;2023-05-27T02:19:23;15.60;99.71
70166;SHT30;57541;47.408;18.822;2023-05-27T02:19:56;15.64;99.69
70166;SHT30;57541;47.408;18.822;2023-05-27T02:20:28;15.61;99.56
70166;SHT30;57541;47.408;18.822;2023-05-27T02:21:00;15.57;99.64
70166;SHT30;57541;47.408;18.822;2023-05-27T02:21:37;15.69;99.52
70166;SHT30;57541;47.408;18.822;2023-05-27T02:22:09;15.67;99.47
70166;SHT30;57541;47.408;18.822;2023-05-27T02:22:41;15.63;99.50
70166;SHT30;57541;47.408;18.822;2023-05-27T02:23:12;15.61;99.48
70166;SHT30;57541;47.408;18.822;2023-05-27T02:23:44;15.56;99.56
70166;SHT30;57541;47.408;18.822;2023-05-27T02:24:16;15.57;99.66
70166;SHT30;57541;47.408;18.822;2023-05-27T02:24:48;15.61;99.47
70166;SHT30;57541;47.408;18.822;2023-05-27T02:25:19;15.59;99.46
70166;SHT30;57541;47.408;18.822;2023-05-27T02:25:51;15.64;99.38
70166;SHT30;57541;47.408;18.822;2023-05-27T02:26:23;15.66;99.23
70166;SHT30;57541;47.408;18.822;2023-05-27T02:26:57;15.61;99.29
70166;SHT30;57541;47.408;18.822;2023-05-27T02:27:28;15.59;99.35
70166;SHT30;57541;47.408;18.822;2023-05-27T02:28:00;15.54;99.25
70166;SHT30;57541;47.408;18.822;2023-05-27T02:28:34;15.53;99.37
70166;SHT30;57541;47.408;18.822;2023-05-27T02:29:06;15.50;99.38
70166;SHT30;57541;47.408;18.822;2023-05-27T02:29:38;15.50;99.55
70166;SHT30;57541;47.408;18.822;2023-05-27T02:30:10;15.50;99.63
70166;SHT30;57541;47.408;18.822;2023-05-27T02:30:42;15.46;99.56
70166;SHT30;57541;47.408;18.822;2023-05-27T02:31:14;15.47;99.53
70166;SHT30;57541;47.408;18.822;2023-05-27T02:31:46;15.47;99.56
70166;SHT30;57541;47.408;18.822;2023-05-27T02:32:17;15.47;99.63
70166;SHT30;57541;47.408;18.822;2023-05-27T02:32:49;15.44;99.64
70166;SHT30;57541;47.408;18.822;2023-05-27T02:33:22;15.38;99.75
70166;SHT30;57541;47.408;18.822;2023-05-27T02:33:54;15.40;99.76
70166;SHT30;57541;47.408;18.822;2023-05-27T02:34:26;15.39;99.74
70166;SHT30;57541;47.408;18.822;2023-05-27T02:34:58;15.43;99.63
70166;SHT30;57541;47.408;18.822;2023-05-27T02:35:29;15.43;99.61
70166;SHT30;57541;47.408;18.822;2023-05-27T02:36:01;15.42;99.60
70166;SHT30;57541;47.408;18.822;2023-05-27T02:36:33;15.40;99.66
70166;SHT30;57541;47.408;18.822;2023-05-27T02:37:05;15.42;99.70
70166;SHT30;57541;47.408;18.822;2023-05-27T02:37:36;15.35;99.69
70166;SHT30;57541;47.408;18.822;2023-05-27T02:38:08;15.40;99.72
70166;SHT30;57541;47.408;18.822;2023-05-27T02:38:40;15.40;99.62
70166;SHT30;57541;47.408;18.822;2023-05-27T02:39:12;15.40;99.65
70166;SHT30;57541;47.408;18.822;2023-05-27T02:39:43;15.42;99.68
70166;SHT30;57541;47.408;18.822;2023-05-27T02:40:26;15.42;99.61
70166;SHT30;57541;47.408;18.822;2023-05-27T02:40:58;15.40;99.63
70166;SHT30;57541;47.408;18.822;2023-05-27T02:41:30;15.38;99.70
70166;SHT30;57541;47.408;18.822;2023-05-27T02:42:02;15.39;99.72
70166;SHT30;57541;47.408;18.822;2023-05-27T02:42:34;15.32;99.77
70166;SHT30;57541;47.408;18.822;2023-05-27T02:43:06;15.32;99.85
70166;SHT30;57541;47.408;18.822;2023-05-27T02:43:37;15.31;99.89
70166;SHT30;57541;47.408;18.822;2023-05-27T02:44:09;15.26;99.94
70166;SHT30;57541;47.408;18.822;2023-05-27T02:44:41;15.25;99.99
70166;SHT30;57541;47.408;18.822;2023-05-27T02:45:13;15.25;99.99
70166;SHT30;57541;47.408;18.822;2023-05-27T02:45:44;15.22;99.99
70166;SHT30;57541;47.408;18.822;2023-05-27T02:46:16;15.26;99.99
70166;SHT30;57541;47.408;18.822;2023-05-27T02:46:48;15.26;99.99
70166;SHT30;57541;47.408;18.822;2023-05-27T02:47:20;15.26;99.99
70166;SHT30;57541;47.408;18.822;2023-05-27T02:47:51;15.29;99.99
70166;SHT30;57541;47.408;18.822;2023-05-27T02:48:23;15.31;99.96
70166;SHT30;57541;47.408;18.822;2023-05-27T02:48:55;15.22;99.99
70166;SHT30;57541;47.408;18.822;2023-05-27T02:49:27;15.23;99.99
70166;SHT30;57541;47.408;18.822;2023-05-27T02:49:58;15.28;99.99
70166;SHT30;57541;47.408;18.822;2023-05-27T02:50:30;15.23;99.99
70166;SHT30;57541;47.408;18.822;2023-05-27T02:51:02;15.28;99.99
70166;SHT30;57541;47.408;18.822;2023-05-27T02:51:34;15.26;99.99
70166;SHT30;57541;47.408;18.822;2023-05-27T02:52:06;15.31;99.99
70166;SHT30;57541;47.408;18.822;2023-05-27T02:52:38;15.32;99.87
70166;SHT30;57541;47.408;18.822;2023-05-27T02:53:09;15.33;99.78
70166;SHT30;57541;47.408;18.822;2023-05-27T02:53:41;15.35;99.74
70166;SHT30;57541;47.408;18.822;2023-05-27T02:54:13;15.35;99.67
70166;SHT30;57541;47.408;18.822;2023-05-27T02:54:45;15.36;99.58
70166;SHT30;57541;47.408;18.822;2023-05-27T02:55:16;15.33;99.74
70166;SHT30;57541;47.408;18.822;2023-05-27T02:55:49;15.36;99.71
70166;SHT30;57541;47.408;18.822;2023-05-27T02:56:21;15.36;99.68
70166;SHT30;57541;47.408;18.822;2023-05-27T02:56:53;15.36;99.71
70166;SHT30;57541;47.408;18.822;2023-05-27T02:57:25;15.40;99.59
70166;SHT30;57541;47.408;18.822;2023-05-27T02:57:57;15.36;99.57
70166;SHT30;57541;47.408;18.822;2023-05-27T02:58:29;15.33;99.50
70166;SHT30;57541;47.408;18.822;2023-05-27T02:59:00;15.32;99.64
70166;SHT30;57541;47.408;18.822;2023-05-27T02:59:32;15.31;99.77
70166;SHT30;57541;47.408;18.822;2023-05-27T03:00:05;15.32;99.71
70166;SHT30;57541;47.408;18.822;2023-05-27T03:00:36;15.26;99.76
70166;SHT30;57541;47.408;18.822;2023-05-27T03:01:08;15.29;99.72
70166;SHT30;57541;47.408;18.822;2023-05-27T03:01:40;15.23;99.72
70166;SHT30;57541;47.408;18.822;2023-05-27T03:02:12;15.23;99.85
70166;SHT30;57541;47.408;18.822;2023-05-27T03:02:44;15.16;99.87
70166;SHT30;57541;47.408;18.822;2023-05-27T03:03:16;15.18;99.99
70166;SHT30;57541;47.408;18.822;2023-05-27T03:03:48;15.19;99.99
70166;SHT30;57541;47.408;18.822;2023-05-27T03:04:20;15.18;99.99
70166;SHT30;57541;47.408;18.822;2023-05-27T03:04:52;15.11;99.99
70166;SHT30;57541;47.408;18.822;2023-05-27T03:05:26;15.11;99.99
70166;SHT30;57541;47.408;18.822;2023-05-27T03:05:58;15.12;99.99
70166;SHT30;57541;47.408;18.822;2023-05-27T03:06:30;15.13;99.99
70166;SHT30;57541;47.408;18.822;2023-05-27T03:07:01;15.16;99.99
70166;SHT30;57541;47.408;18.822;2023-05-27T03:07:33;15.16;99.99
70166;SHT30;57541;47.408;18.822;2023-05-27T03:08:05;15.18;99.99
70166;SHT30;57541;47.408;18.822;2023-05-27T03:08:37;15.18;99.99
70166;SHT30;57541;47.408;18.822;2023-05-27T03:09:09;15.19;99.99
70166;SHT30;57541;47.408;18.822;2023-05-27T03:09:41;15.16;99.99
70166;SHT30;57541;47.408;18.822;2023-05-27T03:10:13;15.13;99.99
70166;SHT30;57541;47.408;18.822;2023-05-27T03:10:45;15.18;99.99
70166;SHT30;57541;47.408;18.822;2023-05-27T03:11:17;15.08;99.99
70166;SHT30;57541;47.408;18.822;2023-05-27T03:11:48;15.12;99.99
70166;SHT30;57541;47.408;18.822;2023-05-27T03:12:20;15.13;99.99
70166;SHT30;57541;47.408;18.822;2023-05-27T03:12:54;15.09;99.99
70166;SHT30;57541;47.408;18.822;2023-05-27T03:13:26;15.11;99.99
70166;SHT30;57541;47.408;18.822;2023-05-27T03:13:58;15.09;99.99
70166;SHT30;57541;47.408;18.822;2023-05-27T03:14:30;15.08;99.99
70166;SHT30;57541;47.408;18.822;2023-05-27T03:15:01;15.12;99.99
70166;SHT30;57541;47.408;18.822;2023-05-27T03:15:33;15.12;99.99
70166;SHT30;57541;47.408;18.822;2023-05-27T03:16:06;15.11;99.99
70166;SHT30;57541;47.408;18.822;2023-05-27T03:16:38;15.12;99.99
70166;SHT30;57541;47.408;18.822;2023-05-27T03:17:11;15.02;99.99
70166;SHT30;57541;47.408;18.822;2023-05-27T03:17:42;15.03;99.99
70166;SHT30;57541;47.408;18.822;2023-05-27T03:18:14;15.03;99.99
70166;SHT30;57541;47.408;18.822;2023-05-27T03:18:46;15.01;99.99
70166;SHT30;57541;47.408;18.822;2023-05-27T03:19:18;15.01;99.99
70166;SHT30;57541;47.408;18.822;2023-05-27T03:19:49;15.05;99.99
70166;SHT30;57541;47.408;18.822;2023-05-27T03:20:22;15.02;99.99
70166;SHT30;57541;47.408;18.822;2023-05-27T03:20:53;15.03;99.99
70166;SHT30;57541;47.408;18.822;2023-05-27T03:21:26;15.05;99.99
70166;SHT30;57541;47.408;18.822;2023-05-27T03:21:58;15.01;99.99
70166;SHT30;57541;47.408;18.822;2023-05-27T03:22:29;15.03;99.99
70166;SHT30;57541;47.408;18.822;2023-05-27T03:23:01;15.02;99.99
70166;SHT30;57541;47.408;18.822;2023-05-27T03:23:34;15.02;99.99
70166;SHT30;57541;47.408;18.822;2023-05-27T03:24:05;15.01;99.99
70166;SHT30;57541;47.408;18.822;2023-05-27T03:24:37;14.99;99.99
70166;SHT30;57541;47.408;18.822;2023-05-27T03:25:09;14.96;99.99
70166;SHT30;57541;47.408;18.822;2023-05-27T03:25:41;14.95;99.99